Time;durP1;ratioP1;P1;durP2;ratioP2;P2;SDS_P1;SDS_P2;PMS_P1;PMS_P2;Temp;Humidity;BMP_temperature;BMP_pressure;BME280_temperature;BME280_humidity;BME280_pressure;Samples;Min_cycle;Max_cycle;Signal;HPM_P1;HPM_P2
2022/05/31 00:01:11;;;;;;;;;;;;;;;12.30;49.86;99754.03;6099846;23;19921;-79
2022/05/31 00:03:37;;;;;;;;;;;;;;;12.33;49.72;99767.16;6100553;23;20372;-77
2022/05/31 00:06:03;;;;;;;;;;;;;;;12.31;49.62;99755.72;6075990;23;19925;-78
2022/05/31 00:08:29;;;;;;;;;;;;;;;12.27;50.03;99762.31;6076356;23;19999;-78
2022/05/31 00:10:54;;;;;;;;;;;;;;;12.23;50.12;99758.16;6075820;23;20265;-77
2022/05/31 00:13:20;;;;;;;;;;;;;;;12.23;49.98;99763.53;6099818;23;20016;-77
2022/05/31 00:15:46;;;;;;;;;;;;;;;12.23;50.18;99755.50;6075887;23;20031;-78
2022/05/31 00:18:13;;;;;;;;;;;;;;;12.32;49.63;99757.41;6124422;23;20404;-78
2022/05/31 00:20:38;;;;;;;;;;;;;;;12.27;49.77;99753.41;6100811;23;19920;-78
2022/05/31 00:23:06;;;;;;;;;;;;;;;12.29;49.54;99763.00;6078185;23;20329;-79
2022/05/31 00:25:32;;;;;;;;;;;;;;;12.30;49.73;99762.06;6077408;23;20261;-78
2022/05/31 00:27:59;;;;;;;;;;;;;;;12.30;49.85;99758.53;6076194;23;19921;-78
2022/05/31 00:30:24;;;;;;;;;;;;;;;12.36;49.90;99758.88;6099813;23;20411;-79
2022/05/31 00:32:51;;;;;;;;;;;;;;;12.36;49.89;99764.22;6124387;23;19952;-77
2022/05/31 00:35:19;;;;;;;;;;;;;;;12.51;49.26;99755.94;6099890;23;19921;-79
2022/05/31 00:37:45;;;;;;;;;;;;;;;12.58;49.24;99768.72;6051822;23;19949;-78
2022/05/31 00:40:12;;;;;;;;;;;;;;;12.42;49.85;99768.25;6075891;23;19921;-78
2022/05/31 00:42:55;;;;;;;;;;;;;;;12.35;49.90;99765.22;6075416;23;19952;-79
2022/05/31 00:45:43;;;;;;;;;;;;;;;12.34;49.94;99763.53;6099600;23;20353;-76
2022/05/31 00:48:29;;;;;;;;;;;;;;;12.28;50.03;99760.47;6067840;23;20265;-79
2022/05/31 00:50:57;;;;;;;;;;;;;;;12.22;50.35;99759.13;6075038;23;20007;-78
2022/05/31 00:53:28;;;;;;;;;;;;;;;12.34;50.33;99760.00;6075438;23;19925;-78
2022/05/31 00:55:56;;;;;;;;;;;;;;;12.22;50.54;99759.13;6075665;23;19995;-77
2022/05/31 00:58:22;;;;;;;;;;;;;;;12.25;50.72;99760.72;6075475;23;19921;-78
2022/05/31 01:00:50;;;;;;;;;;;;;;;12.26;50.70;99757.94;6076337;23;19949;-78
2022/05/31 01:03:17;;;;;;;;;;;;;;;12.42;50.00;99764.72;6075384;23;19998;-79
2022/05/31 01:05:43;;;;;;;;;;;;;;;12.44;50.32;99752.03;6075577;23;19975;-78
2022/05/31 01:08:10;;;;;;;;;;;;;;;12.47;49.97;99751.78;6099632;23;20087;-78
2022/05/31 01:10:52;;;;;;;;;;;;;;;12.61;50.08;99754.22;6099537;23;19986;-77
2022/05/31 01:13:37;;;;;;;;;;;;;;;12.50;50.17;99748.88;6099718;23;19921;-78
2022/05/31 01:16:21;;;;;;;;;;;;;;;12.43;50.54;99747.66;6099316;23;19921;-78
2022/05/31 01:22:10;;;;;;;;;;;;;;;12.56;50.02;99749.22;6070859;23;19961;-78
2022/05/31 01:24:46;;;;;;;;;;;;;;;12.57;50.24;99750.94;6090317;23;20406;-77
2022/05/31 01:27:41;;;;;;;;;;;;;;;12.68;50.00;99754.56;6075672;23;20011;-78
2022/05/31 01:30:08;;;;;;;;;;;;;;;12.69;50.46;99759.78;6081030;23;19952;-77
2022/05/31 01:32:37;;;;;;;;;;;;;;;12.64;49.72;99753.97;6099225;23;19924;-76
2022/05/31 01:35:11;;;;;;;;;;;;;;;12.64;50.18;99753.97;6123721;23;19920;-79
2022/05/31 01:37:44;;;;;;;;;;;;;;;12.79;50.22;99760.75;6099007;23;20044;-78
2022/05/31 01:40:12;;;;;;;;;;;;;;;12.84;49.83;99753.16;6099602;23;19927;-78
2022/05/31 01:42:41;;;;;;;;;;;;;;;12.93;49.66;99756.91;6074924;23;19920;-79
2022/05/31 01:45:11;;;;;;;;;;;;;;;12.85;49.96;99754.84;6075256;23;19928;-78
2022/05/31 01:47:37;;;;;;;;;;;;;;;12.88;50.36;99757.28;6099340;23;20306;-77
2022/05/31 01:50:04;;;;;;;;;;;;;;;12.99;49.93;99766.28;6075251;23;19953;-78
2022/05/31 01:52:30;;;;;;;;;;;;;;;12.88;50.29;99762.66;6099436;23;19920;-78
2022/05/31 01:54:56;;;;;;;;;;;;;;;13.04;50.23;99758.69;6075162;23;19928;-77
2022/05/31 01:57:23;;;;;;;;;;;;;;;13.16;50.15;99762.19;6074997;23;19921;-79
2022/05/31 01:59:50;;;;;;;;;;;;;;;13.16;50.02;99764.84;6075246;23;19999;-78
2022/05/31 02:02:17;;;;;;;;;;;;;;;13.09;50.65;99761.84;6075458;23;19920;-77
2022/05/31 02:04:45;;;;;;;;;;;;;;;13.12;50.53;99761.56;6125314;23;19921;-78
2022/05/31 02:07:15;;;;;;;;;;;;;;;13.19;50.36;99769.97;6075715;23;19921;-77
2022/05/31 02:09:45;;;;;;;;;;;;;;;13.36;50.18;99762.25;6100712;23;19937;-79
2022/05/31 02:12:18;;;;;;;;;;;;;;;13.51;49.89;99764.59;6075854;23;19921;-78
2022/05/31 02:14:58;;;;;;;;;;;;;;;13.53;50.63;99770.69;6078835;23;19921;-78
2022/05/31 02:17:24;;;;;;;;;;;;;;;13.50;50.36;99765.56;6100561;23;19925;-79
2022/05/31 02:20:13;;;;;;;;;;;;;;;13.43;50.77;99772.47;6080656;23;19925;-78
2022/05/31 02:22:39;;;;;;;;;;;;;;;13.67;50.33;99767.66;6123792;23;19920;-83
2022/05/31 02:25:05;;;;;;;;;;;;;;;13.75;50.30;99750.88;6077305;23;20301;-78
2022/05/31 02:27:30;;;;;;;;;;;;;;;13.77;49.59;99763.22;6130651;23;19921;-80
2022/05/31 02:29:56;;;;;;;;;;;;;;;13.80;49.79;99757.56;6103400;23;19944;-78
2022/05/31 02:32:22;;;;;;;;;;;;;;;13.84;49.82;99768.88;6099700;23;19925;-81
2022/05/31 02:34:49;;;;;;;;;;;;;;;13.79;49.88;99766.59;6077024;23;19932;-79
2022/05/31 02:37:18;;;;;;;;;;;;;;;13.88;49.97;99766.78;6103026;23;19987;-80
2022/05/31 02:39:44;;;;;;;;;;;;;;;13.91;49.69;99769.19;6078729;23;19955;-82
2022/05/31 02:42:10;;;;;;;;;;;;;;;14.04;49.60;99770.69;6077362;23;19920;-79
2022/05/31 02:44:37;;;;;;;;;;;;;;;14.08;49.63;99771.28;6102054;23;20013;-79
2022/05/31 02:47:03;;;;;;;;;;;;;;;14.09;49.71;99768.44;6106040;23;19921;-83
2022/05/31 02:49:29;;;;;;;;;;;;;;;14.23;49.40;99769.94;6077486;23;19921;-78
2022/05/31 02:51:57;;;;;;;;;;;;;;;14.33;49.67;99770.81;6104150;23;19921;-80
2022/05/31 02:54:23;;;;;;;;;;;;;;;14.30;50.02;99763.03;6078539;23;19940;-79
2022/05/31 02:57:08;;;;;;;;;;;;;;;14.43;50.49;99772.69;6128030;23;19972;-80
2022/05/31 02:59:52;;;;;;;;;;;;;;;14.68;50.05;99772.22;6083933;23;19961;-82
2022/05/31 03:02:36;;;;;;;;;;;;;;;14.79;49.93;99769.41;6105673;23;19972;-80
2022/05/31 03:05:20;;;;;;;;;;;;;;;15.09;49.72;99759.53;6125854;23;19921;-80
2022/05/31 03:07:46;;;;;;;;;;;;;;;15.39;50.59;99768.44;6077642;23;19963;-80
2022/05/31 03:10:16;;;;;;;;;;;;;;;15.55;50.16;99763.31;6101166;23;19921;-78
2022/05/31 03:12:43;;;;;;;;;;;;;;;15.57;49.75;99766.72;6076822;23;19928;-78
2022/05/31 03:15:14;;;;;;;;;;;;;;;15.95;51.26;99771.19;6076508;23;20304;-80
2022/05/31 03:17:43;;;;;;;;;;;;;;;16.41;50.48;99763.19;6076634;23;19972;-82
2022/05/31 03:20:09;;;;;;;;;;;;;;;16.61;48.47;99767.47;6101377;23;19953;-76
2022/05/31 03:22:39;;;;;;;;;;;;;;;17.15;50.55;99771.13;6100773;23;19931;-83
2022/05/31 03:25:08;;;;;;;;;;;;;;;17.34;47.28;99769.25;6100548;23;19928;-78
2022/05/31 03:27:34;;;;;;;;;;;;;;;17.11;46.22;99772.44;6080437;23;19920;-86
2022/05/31 03:30:01;;;;;;;;;;;;;;;17.10;46.71;99773.44;6078890;23;19921;-87
2022/05/31 03:32:31;;;;;;;;;;;;;;;17.16;46.48;99772.81;6079126;23;19999;-83
2022/05/31 03:34:56;;;;;;;;;;;;;;;17.19;47.07;99759.00;6103820;23;20351;-86
2022/05/31 03:37:22;;;;;;;;;;;;;;;17.20;47.16;99763.41;6055184;23;19920;-86
2022/05/31 03:39:49;;;;;;;;;;;;;;;17.12;47.76;99760.63;6079330;23;20007;-89
2022/05/31 03:42:15;;;;;;;;;;;;;;;17.28;47.83;99753.69;6077472;23;19957;-88
2022/05/31 03:44:42;;;;;;;;;;;;;;;17.36;47.50;99759.16;6102444;23;19921;-90
2022/05/31 03:47:30;;;;;;;;;;;;;;;17.57;47.10;99748.00;6123051;23;20334;-88
2022/05/31 03:50:14;;;;;;;;;;;;;;;17.64;46.79;99755.31;6105902;23;19925;-86
2022/05/31 03:52:41;;;;;;;;;;;;;;;17.52;45.87;99753.84;6103689;23;19940;-84
2022/05/31 03:55:07;;;;;;;;;;;;;;;17.57;46.07;99748.84;6103160;23;19977;-86
2022/05/31 03:57:47;;;;;;;;;;;;;;;17.52;46.11;99753.84;6080308;23;19921;-85
2022/05/31 04:00:25;;;;;;;;;;;;;;;17.60;46.07;99748.53;6079483;23;19969;-77
2022/05/31 04:03:29;;;;;;;;;;;;;;;17.72;46.18;99746.41;6095765;23;19920;-78
2022/05/31 04:05:57;;;;;;;;;;;;;;;17.89;45.73;99748.22;6100440;23;19920;-79
2022/05/31 04:08:24;;;;;;;;;;;;;;;18.02;45.84;99742.41;6100591;23;20002;-76
2022/05/31 04:10:51;;;;;;;;;;;;;;;17.99;45.76;99740.03;6076592;23;19952;-79
2022/05/31 04:13:17;;;;;;;;;;;;;;;17.98;46.04;99741.03;6075836;23;19921;-77
2022/05/31 04:16:04;;;;;;;;;;;;;;;18.06;45.98;99737.53;6089013;23;19924;-81
2022/05/31 04:18:31;;;;;;;;;;;;;;;18.15;44.40;99742.78;6075646;23;20268;-78
2022/05/31 04:21:01;;;;;;;;;;;;;;;18.24;43.66;99740.13;6098745;23;19921;-78
2022/05/31 04:26:40;;;;;;;;;;;;;;;18.59;44.76;99734.53;6112926;23;19985;-80
2022/05/31 04:29:25;;;;;;;;;;;;;;;18.81;43.81;99737.66;6099760;23;19972;-79
2022/05/31 04:32:05;;;;;;;;;;;;;;;18.90;43.90;99747.50;6078810;23;19925;-79
2022/05/31 04:34:52;;;;;;;;;;;;;;;18.84;42.05;99734.59;6078287;23;20345;-85
2022/05/31 04:37:18;;;;;;;;;;;;;;;18.72;40.24;99738.63;6075469;23;19921;-78
2022/05/31 04:40:05;;;;;;;;;;;;;;;18.82;39.96;99733.94;6078379;23;19928;-78
2022/05/31 04:42:43;;;;;;;;;;;;;;;18.79;40.14;99731.56;6077365;23;19921;-78
2022/05/31 04:45:21;;;;;;;;;;;;;;;18.75;39.97;99739.16;6074870;23;19921;-79
2022/05/31 04:47:47;;;;;;;;;;;;;;;18.81;40.21;99732.25;6075246;23;19928;-81
2022/05/31 04:50:13;;;;;;;;;;;;;;;19.01;40.97;99728.19;6075188;23;20264;-81
2022/05/31 04:52:39;;;;;;;;;;;;;;;19.32;40.76;99730.25;6074976;23;19921;-78
2022/05/31 04:55:05;;;;;;;;;;;;;;;19.34;39.22;99739.91;6098913;23;20044;-78
2022/05/31 04:57:52;;;;;;;;;;;;;;;19.42;40.20;99739.06;6097925;23;19979;-78
2022/05/31 05:00:18;;;;;;;;;;;;;;;19.53;39.88;99736.00;6050780;23;19927;-79
2022/05/31 05:03:04;;;;;;;;;;;;;;;19.53;40.30;99733.31;6103201;23;19998;-79
2022/05/31 05:05:33;;;;;;;;;;;;;;;19.58;38.76;99728.19;6098937;23;19969;-78
2022/05/31 05:08:07;;;;;;;;;;;;;;;19.61;40.15;99730.56;6074891;23;19976;-79
2022/05/31 05:10:35;;;;;;;;;;;;;;;19.75;39.81;99741.78;6075347;23;19920;-81
2022/05/31 05:13:12;;;;;;;;;;;;;;;19.94;39.97;99729.72;6076999;23;19928;-81
2022/05/31 05:15:59;;;;;;;;;;;;;;;19.99;38.54;99739.00;6102912;23;19920;-79
2022/05/31 05:18:32;;;;;;;;;;;;;;;19.93;37.42;99738.84;6052950;23;19927;-81
2022/05/31 05:21:02;;;;;;;;;;;;;;;19.85;37.35;99734.28;6074891;23;19921;-78
2022/05/31 05:23:28;;;;;;;;;;;;;;;19.77;37.87;99729.72;6074930;23;19925;-78
2022/05/31 05:25:55;;;;;;;;;;;;;;;19.94;37.80;99727.00;6099557;23;19997;-77
2022/05/31 05:31:41;;;;;;;;;;;;;;;20.35;39.27;99733.97;6082955;23;20282;-82
2022/05/31 05:34:26;;;;;;;;;;;;;;;20.17;36.99;99724.38;6098681;23;20309;-77
2022/05/31 05:36:54;;;;;;;;;;;;;;;20.31;36.47;99751.63;6074655;23;19924;-79
2022/05/31 05:39:20;;;;;;;;;;;;;;;20.22;36.12;99721.97;6098617;23;19921;-79
2022/05/31 05:42:05;;;;;;;;;;;;;;;20.47;36.72;99722.72;6102764;23;19925;-77
2022/05/31 05:44:56;;;;;;;;;;;;;;;20.48;36.39;99721.69;6086953;23;20007;-79
2022/05/31 05:47:22;;;;;;;;;;;;;;;20.72;37.21;99727.00;6123300;23;20036;-79
2022/05/31 05:49:48;;;;;;;;;;;;;;;20.69;35.47;99704.81;6075572;23;19921;-79
2022/05/31 05:52:36;;;;;;;;;;;;;;;20.53;35.91;99720.16;6098757;23;19920;-79
2022/05/31 05:55:20;;;;;;;;;;;;;;;20.59;35.96;99722.16;6098926;23;19932;-78
2022/05/31 05:58:30;;;;;;;;;;;;;;;20.46;34.78;99721.88;5992277;23;19926;-76
2022/05/31 06:01:26;;;;;;;;;;;;;;;20.61;35.33;99717.41;5973694;23;19945;-77
2022/05/31 06:04:03;;;;;;;;;;;;;;;20.64;34.86;99713.47;6027963;23;19925;-78
2022/05/31 06:06:31;;;;;;;;;;;;;;;20.80;34.99;99715.28;6046288;23;20368;-79
2022/05/31 06:08:59;;;;;;;;;;;;;;;20.63;33.73;99713.66;6045732;23;20020;-78
2022/05/31 06:11:43;;;;;;;;;;;;;;;20.54;35.13;99726.44;6046272;23;19957;-78
2022/05/31 06:14:12;;;;;;;;;;;;;;;20.41;35.87;99721.53;6045952;23;20000;-77
2022/05/31 06:16:40;;;;;;;;;;;;;;;20.65;35.76;99722.47;6070457;23;20302;-77
2022/05/31 06:19:09;;;;;;;;;;;;;;;20.81;35.68;99716.94;6070212;23;19964;-78
2022/05/31 06:21:35;;;;;;;;;;;;;;;20.84;35.94;99727.47;6047629;23;19928;-78
2022/05/31 06:24:15;;;;;;;;;;;;;;;20.76;35.99;99714.78;6047898;23;19936;-78
2022/05/31 06:26:42;;;;;;;;;;;;;;;20.49;35.80;99723.38;6048120;23;19928;-78
2022/05/31 06:29:08;;;;;;;;;;;;;;;20.69;36.75;99718.41;6047726;23;19921;-78
2022/05/31 06:31:34;;;;;;;;;;;;;;;20.88;35.75;99719.81;6071842;23;19937;-78
2022/05/31 06:34:03;;;;;;;;;;;;;;;20.81;37.05;99706.94;6048506;23;19954;-79
2022/05/31 06:36:50;;;;;;;;;;;;;;;20.95;35.83;99713.47;6075741;23;19931;-76
2022/05/31 06:39:16;;;;;;;;;;;;;;;21.17;35.61;99689.16;6071581;23;19921;-79
2022/05/31 06:41:42;;;;;;;;;;;;;;;21.54;35.47;99702.78;6047830;23;20013;-77
2022/05/31 06:44:38;;;;;;;;;;;;;;;22.03;34.47;99701.41;5994075;23;19923;-78
2022/05/31 06:47:22;;;;;;;;;;;;;;;22.07;33.74;99703.56;6075512;23;19921;-78
2022/05/31 06:50:17;;;;;;;;;;;;;;;21.82;33.71;99689.41;6053036;23;20403;-78
2022/05/31 06:56:48;;;;;;;;;;;;;;;21.12;35.92;99705.19;6051650;23;20353;-79
2022/05/31 06:59:04;;;;;;;;;;;;;;;21.34;34.62;99707.06;6082995;23;20345;-79
2022/05/31 07:01:37;;;;;;;;;;;;;;;21.25;35.91;99716.28;6099908;23;19921;-78
2022/05/31 07:04:03;;;;;;;;;;;;;;;21.14;34.21;99713.97;6100441;23;19928;-78
2022/05/31 07:06:30;;;;;;;;;;;;;;;21.06;34.94;99710.31;6076323;23;20277;-76
2022/05/31 07:09:16;;;;;;;;;;;;;;;20.96;35.53;99719.75;6080464;23;19999;-78
2022/05/31 07:11:42;;;;;;;;;;;;;;;20.80;35.76;99716.13;6100387;23;20337;-77
2022/05/31 07:14:40;;;;;;;;;;;;;;;20.89;36.21;99713.34;6066145;23;19920;-78
2022/05/31 07:17:26;;;;;;;;;;;;;;;21.32;35.15;99703.63;6153985;23;20007;-78
2022/05/31 07:19:56;;;;;;;;;;;;;;;21.75;35.15;99702.06;6129385;23;19920;-78
2022/05/31 07:22:22;;;;;;;;;;;;;;;21.86;33.87;99700.78;6105032;23;20050;-78
2022/05/31 07:24:55;;;;;;;;;;;;;;;21.56;33.76;99710.78;6131392;23;19967;-80
2022/05/31 07:27:30;;;;;;;;;;;;;;;21.46;34.20;99712.91;6132373;23;19920;-78
2022/05/31 07:30:02;;;;;;;;;;;;;;;21.34;32.91;99709.78;6129268;23;19921;-79
2022/05/31 07:32:29;;;;;;;;;;;;;;;21.60;33.45;99716.69;6129575;23;20341;-78
2022/05/31 07:34:55;;;;;;;;;;;;;;;22.06;33.30;99706.50;6129527;23;19920;-78
2022/05/31 07:37:21;;;;;;;;;;;;;;;22.40;33.81;99702.38;6129348;23;19958;-78
2022/05/31 07:39:48;;;;;;;;;;;;;;;22.66;33.58;99690.94;6130004;23;20352;-79
2022/05/31 07:42:15;;;;;;;;;;;;;;;22.87;31.82;99707.31;6129283;23;19920;-78
2022/05/31 07:44:44;;;;;;;;;;;;;;;22.45;32.00;99681.69;6104745;23;19924;-79
2022/05/31 07:47:10;;;;;;;;;;;;;;;22.44;31.89;99695.50;6104928;23;19947;-79
2022/05/31 07:49:36;;;;;;;;;;;;;;;22.75;32.52;99695.22;6104480;23;19928;-78
2022/05/31 07:52:11;;;;;;;;;;;;;;;22.84;33.02;99683.19;6153760;23;19928;-78
2022/05/31 07:54:55;;;;;;;;;;;;;;;22.68;32.02;99735.19;6129779;23;20349;-81
2022/05/31 08:00:53;;;;;;;;;;;;;;;21.60;33.54;99694.94;6076499;23;19926;-78
2022/05/31 08:03:19;;;;;;;;;;;;;;;21.69;33.76;99701.97;6129292;23;19927;-78
2022/05/31 08:05:45;;;;;;;;;;;;;;;22.02;33.27;99702.47;6105112;23;19955;-78
2022/05/31 08:08:11;;;;;;;;;;;;;;;22.50;33.17;99687.41;6129343;23;19920;-78
2022/05/31 08:10:37;;;;;;;;;;;;;;;22.41;33.29;99698.59;6128915;23;19926;-80
2022/05/31 08:13:03;;;;;;;;;;;;;;;22.09;33.50;99699.84;6104635;23;20404;-78
2022/05/31 08:15:29;;;;;;;;;;;;;;;22.02;33.75;99697.84;6129789;23;19948;-78
2022/05/31 08:17:55;;;;;;;;;;;;;;;22.56;33.69;99696.69;6129143;23;19943;-80
2022/05/31 08:20:20;;;;;;;;;;;;;;;22.65;33.19;99701.00;6104817;23;19920;-79
2022/05/31 08:22:48;;;;;;;;;;;;;;;22.64;32.38;99710.22;6104520;23;20352;-78
2022/05/31 08:25:13;;;;;;;;;;;;;;;22.04;32.90;99709.41;6130390;23;19951;-79
2022/05/31 08:27:39;;;;;;;;;;;;;;;21.77;33.80;99705.44;6130163;23;19920;-82
2022/05/31 08:30:06;;;;;;;;;;;;;;;21.66;33.32;99705.06;6104177;23;19925;-84
2022/05/31 08:32:33;;;;;;;;;;;;;;;21.63;34.00;99709.00;6103992;23;19975;-79
2022/05/31 08:34:58;;;;;;;;;;;;;;;21.65;34.32;99701.50;6104155;23;19920;-78
2022/05/31 08:37:24;;;;;;;;;;;;;;;21.74;34.23;99704.97;6153489;23;20007;-78
2022/05/31 08:39:50;;;;;;;;;;;;;;;21.88;33.87;99704.13;6104318;23;19920;-87
2022/05/31 08:42:19;;;;;;;;;;;;;;;21.89;33.66;99713.16;6127965;23;19924;-79
2022/05/31 08:44:48;;;;;;;;;;;;;;;21.73;33.29;99706.84;6152265;23;20316;-81
2022/05/31 08:47:36;;;;;;;;;;;;;;;21.87;33.38;99691.56;6126442;23;19921;-80
2022/05/31 08:53:10;;;;;;;;;;;;;;;22.43;33.15;99700.09;6128732;23;19920;-78
2022/05/31 08:58:45;;;;;;;;;;;;;;;22.72;32.98;99685.56;6128588;23;19920;-79
2022/05/31 09:01:13;;;;;;;;;;;;;;;22.86;33.12;99694.72;6127414;23;19920;-80
2022/05/31 09:03:51;;;;;;;;;;;;;;;23.20;32.67;99687.72;6152544;23;19920;-84
2022/05/31 09:06:28;;;;;;;;;;;;;;;23.67;30.56;99694.47;6104301;23;19920;-77
2022/05/31 09:09:00;;;;;;;;;;;;;;;23.69;30.06;99681.44;6103863;23;20344;-81
2022/05/31 09:11:28;;;;;;;;;;;;;;;23.36;31.03;99690.22;6127702;23;19920;-80
2022/05/31 09:14:00;;;;;;;;;;;;;;;23.03;31.30;99715.28;6103236;23;19995;-80
2022/05/31 09:16:44;;;;;;;;;;;;;;;22.57;30.73;99703.84;6103588;23;19927;-80
2022/05/31 09:19:14;;;;;;;;;;;;;;;22.90;31.03;99684.28;6128577;23;20006;-79
2022/05/31 09:21:41;;;;;;;;;;;;;;;23.10;30.81;99682.63;6103791;23;19920;-78
2022/05/31 09:24:11;;;;;;;;;;;;;;;23.37;30.24;99680.13;6103598;23;19921;-79
2022/05/31 09:26:56;;;;;;;;;;;;;;;23.19;30.24;99681.44;6153361;23;19999;-81
2022/05/31 09:29:25;;;;;;;;;;;;;;;23.10;31.33;99692.69;6128848;23;20259;-80
2022/05/31 09:32:10;;;;;;;;;;;;;;;22.64;32.62;99682.09;6130434;23;19924;-81
2022/05/31 09:34:37;;;;;;;;;;;;;;;23.10;32.39;99668.16;6104844;23;20392;-79
2022/05/31 09:37:13;;;;;;;;;;;;;;;23.56;32.22;99675.88;6130535;23;19928;-79
2022/05/31 09:39:38;;;;;;;;;;;;;;;23.60;31.78;99683.44;6131558;23;20260;-78
2022/05/31 09:42:09;;;;;;;;;;;;;;;24.58;30.36;99658.81;6105662;23;19924;-81
2022/05/31 09:44:40;;;;;;;;;;;;;;;24.98;29.34;99681.63;6128602;23;20324;-80
2022/05/31 09:47:14;;;;;;;;;;;;;;;24.79;29.60;99699.66;6105020;23;19959;-81
2022/05/31 09:49:43;;;;;;;;;;;;;;;24.01;30.62;99685.44;6129373;23;20427;-80
2022/05/31 09:52:30;;;;;;;;;;;;;;;23.47;31.14;99695.13;6104503;23;19920;-79
2022/05/31 09:58:23;;;;;;;;;;;;;;;24.29;30.58;99687.25;6081255;23;19928;-79
2022/05/31 10:01:26;;;;;;;;;;;;;;;24.84;29.89;99671.69;6064029;23;19921;-79
2022/05/31 10:04:08;;;;;;;;;;;;;;;24.12;30.73;99670.38;6130702;23;19927;-80
2022/05/31 10:06:34;;;;;;;;;;;;;;;24.18;31.09;99680.47;6129981;23;19920;-79
2022/05/31 10:09:14;;;;;;;;;;;;;;;23.86;31.38;99671.91;6105150;23;19921;-79
2022/05/31 10:11:48;;;;;;;;;;;;;;;23.36;31.98;99700.28;6104766;23;19921;-80
2022/05/31 10:14:22;;;;;;;;;;;;;;;23.17;32.63;99689.00;6132340;23;20159;-81
2022/05/31 10:16:49;;;;;;;;;;;;;;;22.81;32.24;99685.44;6108245;23;19920;-80
2022/05/31 10:19:30;;;;;;;;;;;;;;;22.59;32.40;99695.47;6083344;23;19924;-81
2022/05/31 10:21:57;;;;;;;;;;;;;;;23.23;32.10;99687.34;6130723;23;19920;-80
2022/05/31 10:24:54;;;;;;;;;;;;;;;24.31;30.93;99682.44;6111684;23;19927;-80
2022/05/31 10:28:00;;;;;;;;;;;;;;;24.58;30.23;99677.94;6112512;23;19921;-80
2022/05/31 10:30:42;;;;;;;;;;;;;;;24.88;29.95;99682.00;6133119;23;19924;-80
2022/05/31 10:33:34;;;;;;;;;;;;;;;25.11;29.49;99678.06;6105144;23;20404;-80
2022/05/31 10:36:14;;;;;;;;;;;;;;;25.82;28.74;99669.22;6104956;23;19926;-80
2022/05/31 10:38:41;;;;;;;;;;;;;;;25.83;27.98;99684.59;6104326;23;20063;-81
2022/05/31 10:41:09;;;;;;;;;;;;;;;25.00;29.85;99674.03;6129128;23;20019;-81
2022/05/31 10:43:40;;;;;;;;;;;;;;;24.23;29.90;99687.03;6128405;23;19963;-83
2022/05/31 10:46:19;;;;;;;;;;;;;;;24.10;30.89;99680.63;6104510;23;19943;-82
2022/05/31 10:48:47;;;;;;;;;;;;;;;25.12;28.29;99709.84;6105006;23;19936;-82
2022/05/31 10:51:18;;;;;;;;;;;;;;;25.32;28.44;99675.16;6080706;23;19975;-81
2022/05/31 10:54:03;;;;;;;;;;;;;;;25.33;27.24;99678.72;6104028;23;19925;-84
2022/05/31 10:56:36;;;;;;;;;;;;;;;25.41;27.75;99673.03;6103947;23;19971;-81
2022/05/31 10:59:06;;;;;;;;;;;;;;;24.92;28.82;99698.84;6103819;23;19932;-82
2022/05/31 11:01:38;;;;;;;;;;;;;;;23.85;31.03;99686.59;6103852;23;19983;-81
2022/05/31 11:04:10;;;;;;;;;;;;;;;23.63;31.95;99688.53;6104319;23;19920;-83
2022/05/31 11:06:44;;;;;;;;;;;;;;;23.22;32.44;99699.31;6129980;23;19944;-80
2022/05/31 11:12:10;;;;;;;;;;;;;;;24.00;31.95;99694.69;6105750;23;20345;-82
2022/05/31 11:14:47;;;;;;;;;;;;;;;24.67;30.33;99684.88;6104586;23;19958;-82
2022/05/31 11:17:22;;;;;;;;;;;;;;;24.41;30.95;99688.38;6128795;23;19927;-80
2022/05/31 11:20:00;;;;;;;;;;;;;;;24.22;31.18;99681.75;6129052;23;20365;-80
2022/05/31 11:22:32;;;;;;;;;;;;;;;24.46;31.16;99678.53;6128603;23;20016;-81
2022/05/31 11:25:17;;;;;;;;;;;;;;;25.57;30.05;99688.19;6103722;23;19920;-82
2022/05/31 11:27:55;;;;;;;;;;;;;;;26.26;27.63;99679.44;6153658;23;20351;-80
2022/05/31 11:30:27;;;;;;;;;;;;;;;26.29;27.43;99676.25;6105173;23;19920;-82
2022/05/31 11:33:01;;;;;;;;;;;;;;;25.98;27.28;99682.47;6104001;23;19925;-82
2022/05/31 11:35:42;;;;;;;;;;;;;;;24.82;29.42;99687.44;6104908;23;20292;-83
2022/05/31 11:38:13;;;;;;;;;;;;;;;24.49;30.17;99703.78;6104544;23;19963;-82
2022/05/31 11:41:02;;;;;;;;;;;;;;;23.90;30.91;99695.03;6153710;23;19921;-81
2022/05/31 11:43:46;;;;;;;;;;;;;;;23.60;31.81;99696.25;6103779;23;19952;-82
2022/05/31 11:46:15;;;;;;;;;;;;;;;24.06;30.36;99682.94;6106055;23;19920;-80
2022/05/31 11:48:51;;;;;;;;;;;;;;;24.13;30.04;99689.28;6110439;23;19948;-82
2022/05/31 11:51:23;;;;;;;;;;;;;;;24.07;31.13;99684.63;6082100;23;20351;-80
2022/05/31 11:54:05;;;;;;;;;;;;;;;23.52;31.90;99681.72;6106420;23;19931;-81
2022/05/31 11:56:47;;;;;;;;;;;;;;;23.26;32.07;99695.16;6104752;23;20007;-80
2022/05/31 11:59:28;;;;;;;;;;;;;;;23.20;32.74;99693.19;6153481;23;19928;-80
2022/05/31 12:02:10;;;;;;;;;;;;;;;23.19;32.88;99686.06;6104604;23;19920;-78
2022/05/31 12:05:01;;;;;;;;;;;;;;;23.07;32.92;99684.91;6128998;23;20241;-78
2022/05/31 12:07:31;;;;;;;;;;;;;;;22.92;33.74;99702.16;6104758;23;20336;-79
2022/05/31 12:10:09;;;;;;;;;;;;;;;22.57;33.94;99703.84;6104487;23;19983;-78
2022/05/31 12:12:37;;;;;;;;;;;;;;;22.50;34.31;99703.75;6104366;23;19921;-78
2022/05/31 12:15:07;;;;;;;;;;;;;;;22.63;34.41;99702.22;6128699;23;19920;-78
2022/05/31 12:17:37;;;;;;;;;;;;;;;22.33;34.09;99691.38;6104701;23;20376;-79
2022/05/31 12:20:03;;;;;;;;;;;;;;;22.44;34.26;99688.16;6105017;23;19921;-79
2022/05/31 12:22:33;;;;;;;;;;;;;;;22.82;34.01;99696.13;6128902;23;20028;-80
2022/05/31 12:25:03;;;;;;;;;;;;;;;22.92;33.84;99691.25;6104139;23;19967;-79
2022/05/31 12:27:36;;;;;;;;;;;;;;;23.03;33.98;99693.47;6129531;23;19943;-78
2022/05/31 12:30:08;;;;;;;;;;;;;;;23.06;34.23;99686.78;6104090;23;20281;-79
2022/05/31 12:32:36;;;;;;;;;;;;;;;23.55;33.60;99696.03;6128606;23;19924;-80
2022/05/31 12:35:04;;;;;;;;;;;;;;;22.83;33.74;99703.31;6128866;23;19975;-78
2022/05/31 12:37:49;;;;;;;;;;;;;;;22.74;34.04;99693.53;6128586;23;20078;-78
2022/05/31 12:40:22;;;;;;;;;;;;;;;22.55;34.29;99695.00;6153524;23;20040;-79
2022/05/31 12:42:48;;;;;;;;;;;;;;;22.99;34.21;99694.91;6129285;23;19920;-79
2022/05/31 12:45:16;;;;;;;;;;;;;;;23.33;32.66;99689.75;6104128;23;19921;-77
2022/05/31 12:47:42;;;;;;;;;;;;;;;23.08;33.08;99689.31;6104077;23;19920;-78
2022/05/31 12:50:09;;;;;;;;;;;;;;;23.00;33.46;99682.09;6104037;23;19921;-79
2022/05/31 12:55:42;;;;;;;;;;;;;;;22.87;33.31;99687.38;6103822;23;19921;-79
2022/05/31 12:58:26;;;;;;;;;;;;;;;22.80;33.80;99670.97;6128215;23;20296;-79
2022/05/31 13:00:54;;;;;;;;;;;;;;;22.59;34.24;99679.97;6075400;23;19932;-80
2022/05/31 13:03:36;;;;;;;;;;;;;;;22.52;34.88;99687.22;6098925;23;19941;-78
2022/05/31 13:06:15;;;;;;;;;;;;;;;22.36;35.10;99684.72;6074836;23;19921;-78
2022/05/31 13:08:57;;;;;;;;;;;;;;;22.55;34.94;99673.22;6074733;23;19921;-79
2022/05/31 13:19:46;;;;;;;;;;;;;;;22.77;34.83;99669.47;6128682;23;20315;-78
2022/05/31 13:22:16;;;;;;;;;;;;;;;22.98;34.98;99665.09;6128337;23;20324;-79
2022/05/31 13:24:46;;;;;;;;;;;;;;;23.26;34.18;99676.06;6154238;23;19931;-78
2022/05/31 13:27:14;;;;;;;;;;;;;;;23.46;34.54;99673.47;6128470;23;20003;-80
2022/05/31 13:29:39;;;;;;;;;;;;;;;23.58;34.64;99669.16;6128130;23;20305;-80
2022/05/31 13:32:09;;;;;;;;;;;;;;;23.86;33.75;99671.06;6128011;23;19925;-79
2022/05/31 13:34:36;;;;;;;;;;;;;;;24.03;33.76;99677.88;6080151;23;19924;-79
2022/05/31 13:37:04;;;;;;;;;;;;;;;24.22;33.33;99676.28;6103924;23;20222;-80
2022/05/31 13:39:37;;;;;;;;;;;;;;;23.96;33.71;99677.84;6103656;23;19921;-80
2022/05/31 13:42:04;;;;;;;;;;;;;;;23.81;34.20;99674.41;6128171;23;19921;-79
2022/05/31 13:44:31;;;;;;;;;;;;;;;24.03;33.53;99682.50;6103704;23;19927;-80
2022/05/31 13:46:59;;;;;;;;;;;;;;;23.97;33.96;99679.53;6104409;23;19920;-79
2022/05/31 13:49:31;;;;;;;;;;;;;;;23.95;34.08;99676.16;6103574;23;19928;-80
2022/05/31 13:51:59;;;;;;;;;;;;;;;23.98;34.40;99674.91;6128337;23;20368;-78
2022/05/31 13:54:28;;;;;;;;;;;;;;;23.70;34.58;99677.69;6152990;23;20302;-78
2022/05/31 13:56:57;;;;;;;;;;;;;;;23.38;34.83;99674.47;6128392;23;19943;-79